createdAt,value
2024-01-18T00:00:37.500Z,20.27
2024-01-18T00:03:05.296Z,18.75
2024-01-18T00:05:32.708Z,18.42
2024-01-18T00:07:59.936Z,23.30
2024-01-18T00:10:30.312Z,22.67
2024-01-18T00:12:57.546Z,19.33
2024-01-18T00:15:25.212Z,20.30
2024-01-18T00:17:52.616Z,18.45
2024-01-18T00:20:20.096Z,19.40
2024-01-18T00:22:47.392Z,16.58
2024-01-18T00:25:14.742Z,16.20
2024-01-18T00:27:42.049Z,16.77
2024-01-18T00:30:09.663Z,15.70
2024-01-18T00:32:36.994Z,13.70
2024-01-18T00:35:04.446Z,16.75
2024-01-18T00:37:31.688Z,15.55
2024-01-18T00:39:59.038Z,16.02
2024-01-18T00:42:27.014Z,21.40
2024-01-18T00:44:54.455Z,16.67
2024-01-18T00:47:21.629Z,14.65
2024-01-18T00:49:48.967Z,16.35
2024-01-18T00:52:16.360Z,17.83
2024-01-18T00:54:43.807Z,15.95
2024-01-18T00:57:11.095Z,16.52
2024-01-18T00:59:38.388Z,16.30
2024-01-18T01:02:07.148Z,17.45
2024-01-18T01:04:34.635Z,17.55
2024-01-18T01:07:02.336Z,17.65
2024-01-18T01:09:30.234Z,20.83
2024-01-18T01:11:58.017Z,17.10
2024-01-18T01:14:25.336Z,15.25
2024-01-18T01:16:52.621Z,17.27
2024-01-18T01:19:19.994Z,19.95
2024-01-18T01:21:47.306Z,17.92
2024-01-18T01:24:14.603Z,16.35
2024-01-18T01:26:41.845Z,18.73
2024-01-18T01:29:11.940Z,16.85
2024-01-18T01:31:39.350Z,16.05
2024-01-18T01:34:06.679Z,19.40
2024-01-18T01:36:34.056Z,18.60
2024-01-18T01:39:01.841Z,17.58
2024-01-18T01:41:29.219Z,16.90
2024-01-18T01:44:00.430Z,17.33
2024-01-18T01:46:28.064Z,17.13
2024-01-18T01:49:02.971Z,13.85
2024-01-18T01:51:32.270Z,14.63
2024-01-18T01:53:59.887Z,13.50
2024-01-18T01:56:27.229Z,13.20
2024-01-18T01:58:54.497Z,11.77
2024-01-18T02:01:21.824Z,12.13
2024-01-18T02:03:49.420Z,11.05
2024-01-18T02:06:17.693Z,12.65
2024-01-18T02:08:48.243Z,13.65
2024-01-18T02:11:15.789Z,10.82
2024-01-18T02:13:43.430Z,15.13
2024-01-18T02:16:11.027Z,12.57
2024-01-18T02:18:38.589Z,13.38
2024-01-18T02:21:09.004Z,11.95
2024-01-18T02:23:37.315Z,10.93
2024-01-18T02:26:04.748Z,11.23
2024-01-18T02:28:32.113Z,11.10
2024-01-18T02:33:44.150Z,10.52
2024-01-18T02:36:11.550Z,8.90
2024-01-18T02:38:39.005Z,9.65
2024-01-18T02:41:06.381Z,9.20
2024-01-18T02:43:33.992Z,9.25
2024-01-18T02:46:01.321Z,10.02
2024-01-18T02:48:28.641Z,7.85
2024-01-18T02:50:56.043Z,7.53
2024-01-18T02:53:23.296Z,10.02
2024-01-18T02:55:50.705Z,10.70
2024-01-18T02:58:18.327Z,9.18
2024-01-18T03:00:45.738Z,10.48
2024-01-18T03:03:17.330Z,8.63
2024-01-18T03:05:44.574Z,9.38
2024-01-18T03:08:11.778Z,7.82
2024-01-18T03:10:39.127Z,8.43
2024-01-18T03:13:06.471Z,8.45
2024-01-18T03:15:33.784Z,9.15
2024-01-18T03:18:01.266Z,7.70
2024-01-18T03:20:28.649Z,8.75
2024-01-18T03:22:55.980Z,8.80
2024-01-18T03:25:23.285Z,8.65
2024-01-18T03:27:50.515Z,8.57
2024-01-18T03:30:17.915Z,8.50
2024-01-18T03:32:45.235Z,7.30
2024-01-18T03:35:12.556Z,9.93
2024-01-18T03:37:40.207Z,7.95
2024-01-18T03:40:10.513Z,6.75
2024-01-18T03:42:41.666Z,7.60
2024-01-18T03:45:09.168Z,7.93
2024-01-18T03:47:36.632Z,7.72
2024-01-18T03:50:04.445Z,7.38
2024-01-18T03:52:31.709Z,6.93
2024-01-18T03:54:59.001Z,6.90
2024-01-18T03:57:26.446Z,6.72
2024-01-18T03:59:53.976Z,6.40
2024-01-18T04:02:21.135Z,7.63
2024-01-18T04:04:48.487Z,5.90
2024-01-18T04:07:16.417Z,6.45
2024-01-18T04:09:43.715Z,6.45
2024-01-18T04:12:11.093Z,8.20
2024-01-18T04:14:40.349Z,6.15
2024-01-18T04:17:07.537Z,8.13
2024-01-18T04:19:35.011Z,7.50
2024-01-18T04:22:02.527Z,8.00
2024-01-18T04:24:29.936Z,7.35
2024-01-18T04:26:57.295Z,8.77
2024-01-18T04:29:24.795Z,7.03
2024-01-18T04:31:52.030Z,9.38
2024-01-18T04:34:19.284Z,9.30
2024-01-18T04:36:46.604Z,8.57
2024-01-18T04:39:15.621Z,10.10
2024-01-18T04:41:42.902Z,9.45
2024-01-18T04:44:10.103Z,9.60
2024-01-18T04:46:38.130Z,9.90
2024-01-18T04:49:06.088Z,9.43
2024-01-18T04:51:33.523Z,10.68
2024-01-18T04:54:00.869Z,11.85
2024-01-18T04:56:28.509Z,11.35
2024-01-18T04:58:55.919Z,10.88
2024-01-18T05:01:23.190Z,15.80
2024-01-18T05:03:50.880Z,13.13
2024-01-18T05:06:18.352Z,13.23
2024-01-18T05:08:46.217Z,13.95
2024-01-18T05:11:13.609Z,14.52
2024-01-18T05:13:40.801Z,16.02
2024-01-18T05:16:08.355Z,17.17
2024-01-18T05:18:36.668Z,15.00
2024-01-18T05:21:04.081Z,17.92
2024-01-18T05:23:31.496Z,16.90
2024-01-18T05:25:58.809Z,18.23
2024-01-18T05:28:26.201Z,16.55
2024-01-18T05:30:53.579Z,22.33
2024-01-18T05:33:21.155Z,18.50
2024-01-18T05:35:48.543Z,16.83
2024-01-18T05:38:16.345Z,19.30
2024-01-18T05:40:44.818Z,18.02
2024-01-18T05:43:12.362Z,19.25
2024-01-18T05:45:39.878Z,19.65
2024-01-18T05:48:07.467Z,19.23
2024-01-18T05:50:34.968Z,19.38
2024-01-18T05:53:02.406Z,19.23
2024-01-18T05:55:29.785Z,15.73
2024-01-18T05:57:57.224Z,16.55
2024-01-18T06:00:25.740Z,19.27
2024-01-18T06:02:53.024Z,19.17
2024-01-18T06:05:20.425Z,18.52
2024-01-18T06:07:47.807Z,17.45
2024-01-18T06:10:15.182Z,15.75
2024-01-18T06:12:42.682Z,15.73
2024-01-18T06:15:12.199Z,19.33
2024-01-18T06:17:39.909Z,17.90
2024-01-18T06:20:07.781Z,15.70
2024-01-18T06:22:35.220Z,15.40
2024-01-18T06:25:02.638Z,15.15
2024-01-18T06:27:29.917Z,17.73
2024-01-18T06:29:58.673Z,12.38
2024-01-18T06:32:27.130Z,16.30
2024-01-18T06:34:54.783Z,17.13
2024-01-18T06:37:22.759Z,15.48
2024-01-18T06:39:51.524Z,18.27
2024-01-18T06:42:21.425Z,17.52
2024-01-18T06:44:48.957Z,18.30
2024-01-18T06:47:16.416Z,18.05
2024-01-18T06:49:44.342Z,17.42
2024-01-18T06:52:12.671Z,16.92
2024-01-18T06:54:40.400Z,16.55
2024-01-18T06:57:09.120Z,18.15
2024-01-18T06:59:36.750Z,17.92
2024-01-18T07:02:08.339Z,16.35
2024-01-18T07:04:38.275Z,16.45
2024-01-18T07:07:05.926Z,13.52
2024-01-18T07:09:33.933Z,20.70
2024-01-18T07:12:01.634Z,17.65
2024-01-18T07:14:31.384Z,16.65
2024-01-18T07:17:01.798Z,15.20
2024-01-18T07:19:29.202Z,13.00
2024-01-18T07:21:56.832Z,16.25
2024-01-18T07:24:24.406Z,15.25
2024-01-18T07:26:51.948Z,14.63
2024-01-18T07:29:19.325Z,14.23
2024-01-18T07:31:48.281Z,16.38
2024-01-18T07:34:17.421Z,14.90
2024-01-18T07:36:45.030Z,17.23
2024-01-18T07:39:12.659Z,16.60
2024-01-18T07:41:40.026Z,19.65
2024-01-18T07:44:07.361Z,18.80
2024-01-18T07:46:35.024Z,16.55
2024-01-18T07:49:03.159Z,16.60
2024-01-18T07:51:31.823Z,17.05
2024-01-18T07:53:59.234Z,18.80
2024-01-18T07:56:27.788Z,17.17
2024-01-18T07:58:55.418Z,18.33
2024-01-18T08:01:22.897Z,21.17
2024-01-18T08:03:50.372Z,20.75
2024-01-18T08:06:18.282Z,17.58
2024-01-18T08:08:45.864Z,18.30
2024-01-18T08:11:16.417Z,22.27
2024-01-18T08:13:44.174Z,19.98
2024-01-18T08:16:11.710Z,23.52
2024-01-18T08:18:40.520Z,27.50
2024-01-18T08:21:10.184Z,24.75
2024-01-18T08:23:38.266Z,22.17
2024-01-18T08:26:05.716Z,25.48
2024-01-18T08:28:33.485Z,21.80
2024-01-18T08:31:01.227Z,23.45
2024-01-18T08:33:28.619Z,25.05
2024-01-18T08:35:56.308Z,27.33
2024-01-18T08:38:23.891Z,23.88
2024-01-18T08:40:51.485Z,21.35
2024-01-18T08:43:21.285Z,24.52
2024-01-18T08:45:48.638Z,22.50
2024-01-18T08:48:17.694Z,21.00
2024-01-18T08:50:47.324Z,22.98
2024-01-18T08:53:14.732Z,22.02
2024-01-18T08:55:43.001Z,27.65
2024-01-18T08:58:10.466Z,22.58
2024-01-18T09:00:37.970Z,19.80
2024-01-18T09:03:05.905Z,23.52
2024-01-18T09:05:33.122Z,25.48
2024-01-18T09:08:06.277Z,24.88
2024-01-18T09:10:34.339Z,21.88
2024-01-18T09:13:01.867Z,20.77
2024-01-18T09:15:29.475Z,18.58
2024-01-18T09:17:57.304Z,19.55
2024-01-18T09:20:25.018Z,21.65
2024-01-18T09:23:01.117Z,20.80
2024-01-18T09:25:32.985Z,19.15
2024-01-18T09:28:00.791Z,24.20
2024-01-18T09:30:28.169Z,22.48
2024-01-18T09:32:55.661Z,21.95
2024-01-18T09:35:23.085Z,24.73
2024-01-18T09:37:50.699Z,26.15
2024-01-18T09:40:18.087Z,28.70
2024-01-18T09:42:49.120Z,27.00
2024-01-18T09:45:18.704Z,27.02
2024-01-18T09:47:46.232Z,28.85
2024-01-18T09:50:15.954Z,31.75
2024-01-18T09:52:45.898Z,27.20
2024-01-18T09:55:13.214Z,31.77
2024-01-18T09:57:42.327Z,30.02
2024-01-18T10:00:14.983Z,31.65
2024-01-18T10:02:42.474Z,29.08
2024-01-18T10:05:13.205Z,34.53
2024-01-18T10:07:41.205Z,30.38
2024-01-18T10:10:09.404Z,29.33
2024-01-18T10:12:37.915Z,28.08
2024-01-18T10:15:05.653Z,30.00
2024-01-18T10:17:34.960Z,31.08
2024-01-18T10:20:02.942Z,31.98
2024-01-18T10:22:30.445Z,34.38
2024-01-18T10:24:57.938Z,31.38
2024-01-18T10:30:28.674Z,28.77
2024-01-18T10:33:14.836Z,28.25
2024-01-18T10:35:44.478Z,33.15
2024-01-18T10:38:11.660Z,27.67
2024-01-18T10:40:38.899Z,25.80
2024-01-18T10:43:06.370Z,29.45
2024-01-18T10:45:34.085Z,28.65
2024-01-18T10:48:01.960Z,27.20
2024-01-18T10:50:30.612Z,28.08
2024-01-18T10:52:58.577Z,28.60
2024-01-18T10:55:26.002Z,25.73
2024-01-18T10:57:53.631Z,24.58
2024-01-18T11:00:21.720Z,20.92
2024-01-18T11:02:49.289Z,23.45
2024-01-18T11:05:21.948Z,22.65
2024-01-18T11:07:50.952Z,21.58
2024-01-18T11:10:18.373Z,22.23
2024-01-18T11:12:55.629Z,26.17
2024-01-18T11:15:23.214Z,23.83
2024-01-18T11:17:56.252Z,20.65
2024-01-18T11:20:23.697Z,23.95
2024-01-18T11:22:51.055Z,19.88
2024-01-18T11:25:19.356Z,23.50
2024-01-18T11:27:46.628Z,22.83
2024-01-18T11:30:36.904Z,25.08
2024-01-18T11:33:07.653Z,23.92
2024-01-18T11:35:36.409Z,25.42
2024-01-18T11:38:34.188Z,25.02
2024-01-18T11:41:09.037Z,27.77
2024-01-18T11:43:56.175Z,22.55
2024-01-18T11:46:33.547Z,24.27
2024-01-18T11:49:01.171Z,26.73
2024-01-18T11:51:29.323Z,25.63
2024-01-18T11:53:59.106Z,24.33
2024-01-18T11:56:28.140Z,23.83
2024-01-18T11:59:01.307Z,27.88
2024-01-18T12:01:29.982Z,25.13
2024-01-18T12:03:58.135Z,23.85
2024-01-18T12:06:30.658Z,25.40
2024-01-18T12:08:58.446Z,27.30
2024-01-18T12:11:26.510Z,22.30
2024-01-18T12:13:54.063Z,23.45
2024-01-18T12:16:22.336Z,32.53
2024-01-18T12:18:53.364Z,22.77
2024-01-18T12:21:23.867Z,27.80
2024-01-18T12:23:52.126Z,29.50
2024-01-18T12:26:19.499Z,28.88
2024-01-18T12:28:46.988Z,36.38
2024-01-18T12:31:14.438Z,27.58
2024-01-18T12:33:41.887Z,30.33
2024-01-18T12:36:10.358Z,29.27
2024-01-18T12:38:37.895Z,27.75
2024-01-18T12:41:05.870Z,31.10
2024-01-18T12:43:33.231Z,30.02
2024-01-18T12:46:00.643Z,30.70
2024-01-18T12:48:29.055Z,30.92
2024-01-18T12:50:56.561Z,31.50
2024-01-18T12:53:24.788Z,32.75
2024-01-18T12:55:54.580Z,28.05
2024-01-18T12:58:23.803Z,37.65
2024-01-18T13:00:52.759Z,41.40
2024-01-18T13:03:22.497Z,47.70
2024-01-18T13:05:50.349Z,39.78
2024-01-18T13:08:18.320Z,43.65
2024-01-18T13:10:48.921Z,39.05
2024-01-18T13:13:16.572Z,46.70
2024-01-18T13:15:44.344Z,51.38
2024-01-18T13:18:12.575Z,44.03
2024-01-18T13:20:43.530Z,46.20
2024-01-18T13:23:12.809Z,44.65
2024-01-18T13:25:40.088Z,46.97
2024-01-18T13:28:07.995Z,50.15
2024-01-18T13:30:35.893Z,47.45
2024-01-18T13:33:07.066Z,49.30
2024-01-18T13:35:37.140Z,54.47
2024-01-18T13:38:04.854Z,51.97
2024-01-18T13:40:32.330Z,56.33
2024-01-18T13:42:59.743Z,50.45
2024-01-18T13:45:27.247Z,52.47
2024-01-18T13:47:54.772Z,49.47
2024-01-18T13:50:25.224Z,52.03
2024-01-18T13:52:52.622Z,49.42
2024-01-18T13:55:20.152Z,41.10
2024-01-18T13:57:47.546Z,46.17
2024-01-18T14:00:15.323Z,44.58
2024-01-18T14:02:42.623Z,51.30
2024-01-18T14:05:09.901Z,47.08
2024-01-18T14:07:37.387Z,44.90
2024-01-18T14:10:05.472Z,46.05
2024-01-18T14:12:33.041Z,53.38
2024-01-18T14:15:00.780Z,51.47
2024-01-18T14:17:29.891Z,58.03
2024-01-18T14:19:57.734Z,59.72
2024-01-18T14:22:25.031Z,54.80
2024-01-18T14:24:52.821Z,63.70
2024-01-18T14:27:20.379Z,59.53
2024-01-18T14:29:48.074Z,62.83
2024-01-18T14:32:15.363Z,59.72
2024-01-18T14:34:42.736Z,66.05
2024-01-18T14:37:10.238Z,59.17
2024-01-18T14:39:37.662Z,64.45
2024-01-18T14:42:07.885Z,72.13
2024-01-18T14:44:40.432Z,62.25
2024-01-18T14:47:07.914Z,65.15
2024-01-18T14:49:35.455Z,56.42
2024-01-18T14:52:04.034Z,59.55
2024-01-18T14:54:33.262Z,59.03
2024-01-18T14:57:00.630Z,54.47
2024-01-18T14:59:28.167Z,56.13
2024-01-18T15:01:55.720Z,52.65
2024-01-18T15:04:24.356Z,50.78
2024-01-18T15:06:51.860Z,46.28
2024-01-18T15:09:19.231Z,49.67
2024-01-18T15:11:46.687Z,46.33
2024-01-18T15:14:14.316Z,58.63
2024-01-18T15:16:41.807Z,46.78
2024-01-18T15:19:14.406Z,46.55
2024-01-18T15:21:48.480Z,42.47
2024-01-18T15:24:16.150Z,49.25
2024-01-18T15:26:44.098Z,49.58
2024-01-18T15:29:11.584Z,42.00
2024-01-18T15:31:39.081Z,45.08
2024-01-18T15:34:07.205Z,46.13
2024-01-18T15:36:39.257Z,47.10
2024-01-18T15:39:06.602Z,39.35
2024-01-18T15:41:35.782Z,35.22
2024-01-18T15:44:04.822Z,41.30
2024-01-18T15:46:32.244Z,39.95
2024-01-18T15:48:59.881Z,44.45
2024-01-18T15:51:27.416Z,37.72
2024-01-18T15:53:54.993Z,37.15
2024-01-18T15:56:22.280Z,38.22
2024-01-18T15:58:49.643Z,35.30
2024-01-18T16:01:17.647Z,38.80
2024-01-18T16:03:47.266Z,39.83
2024-01-18T16:06:14.724Z,38.33
2024-01-18T16:08:43.979Z,40.55
2024-01-18T16:11:11.489Z,42.38
2024-01-18T16:13:38.903Z,40.78
2024-01-18T16:16:06.585Z,37.63
2024-01-18T16:18:34.161Z,39.78
2024-01-18T16:21:01.870Z,37.47
2024-01-18T16:23:29.586Z,35.28
2024-01-18T16:25:57.027Z,35.25
2024-01-18T16:28:24.376Z,39.55
2024-01-18T16:30:51.675Z,36.65
2024-01-18T16:33:19.056Z,36.33
2024-01-18T16:35:46.608Z,40.70
2024-01-18T16:38:14.202Z,36.03
2024-01-18T16:40:42.360Z,43.38
2024-01-18T16:43:10.462Z,42.17
2024-01-18T16:45:37.729Z,34.35
2024-01-18T16:48:05.345Z,36.35
2024-01-18T16:50:33.751Z,35.38
2024-01-18T16:53:04.324Z,37.28
2024-01-18T16:55:34.436Z,34.80
2024-01-18T16:58:01.863Z,35.85
2024-01-18T17:00:29.289Z,42.17
2024-01-18T17:02:56.778Z,39.10
2024-01-18T17:05:24.700Z,35.72
2024-01-18T17:07:52.238Z,41.95
2024-01-18T17:10:20.179Z,33.05
2024-01-18T17:12:47.775Z,36.17
2024-01-18T17:15:15.121Z,38.53
2024-01-18T17:17:42.519Z,35.83
2024-01-18T17:20:10.762Z,35.92
2024-01-18T17:22:39.363Z,31.85
2024-01-18T17:25:07.397Z,33.95
2024-01-18T17:27:34.725Z,37.85
2024-01-18T17:30:02.739Z,31.38
2024-01-18T17:32:30.134Z,32.10
2024-01-18T17:34:57.619Z,34.72
2024-01-18T17:37:24.872Z,32.13
2024-01-18T17:39:52.103Z,34.38
2024-01-18T17:42:19.606Z,33.92
2024-01-18T17:44:46.856Z,37.13
2024-01-18T17:47:16.365Z,32.45
2024-01-18T17:49:43.930Z,34.10
2024-01-18T17:52:11.565Z,37.20
2024-01-18T17:54:39.454Z,33.03
2024-01-18T17:57:07.787Z,34.22
2024-01-18T17:59:35.425Z,28.08
2024-01-18T18:02:03.577Z,29.80
2024-01-18T18:04:30.909Z,32.45
2024-01-18T18:06:59.287Z,32.00
2024-01-18T18:09:27.426Z,35.65
2024-01-18T18:11:55.021Z,34.33
2024-01-18T18:14:23.510Z,35.33
2024-01-18T18:16:51.359Z,36.92
2024-01-18T18:19:19.641Z,31.65
2024-01-18T18:21:46.946Z,33.33
2024-01-18T18:24:14.509Z,34.75
2024-01-18T18:26:43.093Z,30.27
2024-01-18T18:29:10.835Z,31.23
2024-01-18T18:31:38.641Z,31.98
2024-01-18T18:34:16.314Z,36.90
2024-01-18T18:36:48.483Z,35.08
2024-01-18T18:39:16.365Z,29.70
2024-01-18T18:41:43.757Z,32.55
2024-01-18T18:44:12.084Z,31.75
2024-01-18T18:46:39.340Z,32.63
2024-01-18T18:49:06.866Z,32.30
2024-01-18T18:51:34.588Z,41.17
2024-01-18T18:54:03.564Z,33.80
2024-01-18T18:56:30.897Z,32.10
2024-01-18T18:58:58.417Z,34.60
2024-01-18T19:01:28.380Z,33.10
2024-01-18T19:03:57.117Z,34.10
2024-01-18T19:06:25.057Z,37.47
2024-01-18T19:08:52.968Z,38.72
2024-01-18T19:11:20.837Z,37.60
2024-01-18T19:13:50.592Z,37.72
2024-01-18T19:16:18.849Z,32.92
2024-01-18T19:18:46.615Z,32.90
2024-01-18T19:21:14.057Z,38.28
2024-01-18T19:23:41.520Z,39.08
2024-01-18T19:26:11.347Z,45.80
2024-01-18T19:28:38.794Z,38.15
2024-01-18T19:31:06.523Z,35.13
2024-01-18T19:33:34.537Z,37.75
2024-01-18T19:36:03.576Z,39.03
2024-01-18T19:38:31.302Z,41.35
2024-01-18T19:40:58.889Z,39.70
2024-01-18T19:43:29.036Z,38.70
2024-01-18T19:46:00.782Z,37.55
2024-01-18T19:48:30.432Z,44.55
2024-01-18T19:50:58.144Z,35.97
2024-01-18T19:53:25.598Z,38.70
2024-01-18T19:55:53.820Z,39.45
2024-01-18T19:58:21.222Z,34.17
2024-01-18T20:00:48.604Z,40.17
2024-01-18T20:03:16.978Z,36.00
2024-01-18T20:05:45.577Z,37.20
2024-01-18T20:08:13.857Z,37.20
2024-01-18T20:10:41.272Z,42.45
2024-01-18T20:13:09.103Z,39.95
2024-01-18T20:15:36.487Z,44.42
2024-01-18T20:18:04.314Z,38.85
2024-01-18T20:20:31.841Z,43.80
2024-01-18T20:23:00.491Z,34.40
2024-01-18T20:25:28.037Z,43.63
2024-01-18T20:27:55.455Z,36.22
2024-01-18T20:30:23.700Z,35.03
2024-01-18T20:32:52.437Z,35.28
2024-01-18T20:35:19.990Z,37.97
2024-01-18T20:37:48.167Z,36.17
2024-01-18T20:40:15.751Z,42.45
2024-01-18T20:42:44.382Z,38.03
2024-01-18T20:45:11.613Z,41.00
2024-01-18T20:47:39.182Z,38.33
2024-01-18T20:50:07.052Z,40.83
2024-01-18T20:52:34.488Z,36.97
2024-01-18T20:55:01.882Z,45.60
2024-01-18T20:57:29.304Z,37.40
2024-01-18T20:59:58.890Z,38.13
2024-01-18T21:02:26.336Z,35.45
2024-01-18T21:04:53.896Z,39.90
2024-01-18T21:07:22.192Z,40.78
2024-01-18T21:09:49.485Z,36.33
2024-01-18T21:12:21.275Z,34.50
2024-01-18T21:14:49.025Z,40.65
2024-01-18T21:17:17.593Z,35.97
2024-01-18T21:19:45.005Z,37.58
2024-01-18T21:22:12.424Z,37.47
2024-01-18T21:24:39.988Z,39.08
2024-01-18T21:27:07.385Z,40.10
2024-01-18T21:29:34.961Z,37.67
2024-01-18T21:32:02.324Z,45.58
2024-01-18T21:34:29.816Z,41.72
2024-01-18T21:36:57.470Z,33.78
2024-01-18T21:39:25.111Z,41.67
2024-01-18T21:41:52.830Z,39.45
2024-01-18T21:44:21.050Z,43.53
2024-01-18T21:46:49.185Z,46.42
2024-01-18T21:49:18.322Z,41.15
2024-01-18T21:51:45.762Z,36.83
2024-01-18T21:54:15.070Z,38.97
2024-01-18T21:56:42.974Z,48.05
2024-01-18T21:59:10.555Z,45.38
2024-01-18T22:01:38.178Z,44.05
2024-01-18T22:04:05.808Z,37.53
2024-01-18T22:06:33.143Z,37.65
2024-01-18T22:09:00.673Z,42.83
2024-01-18T22:11:28.403Z,40.33
2024-01-18T22:13:57.786Z,37.75
2024-01-18T22:16:27.752Z,38.33
2024-01-18T22:18:55.077Z,45.50
2024-01-18T22:21:22.635Z,33.95
2024-01-18T22:23:50.189Z,34.75
2024-01-18T22:26:17.422Z,37.63
2024-01-18T22:28:44.662Z,40.50
2024-01-18T22:31:13.252Z,37.72
2024-01-18T22:33:42.054Z,33.70
2024-01-18T22:36:12.323Z,31.85
2024-01-18T22:38:40.405Z,33.95
2024-01-18T22:41:07.777Z,40.38
2024-01-18T22:43:35.209Z,34.70
2024-01-18T22:46:02.852Z,35.75
2024-01-18T22:48:30.576Z,36.80
2024-01-18T22:50:58.590Z,40.08
2024-01-18T22:53:26.280Z,37.60
2024-01-18T22:55:54.008Z,40.38
2024-01-18T22:58:21.888Z,38.70
2024-01-18T23:00:49.695Z,42.90
2024-01-18T23:03:17.205Z,36.33
2024-01-18T23:05:46.256Z,36.28
2024-01-18T23:08:13.738Z,42.53
2024-01-18T23:10:40.997Z,40.00
2024-01-18T23:13:08.361Z,41.78
2024-01-18T23:15:36.018Z,41.88
2024-01-18T23:18:03.453Z,38.20
2024-01-18T23:20:30.740Z,35.20
2024-01-18T23:22:58.048Z,40.95
2024-01-18T23:25:25.374Z,43.13
2024-01-18T23:27:52.628Z,45.35
2024-01-18T23:30:20.133Z,36.03
2024-01-18T23:33:12.955Z,46.05
2024-01-18T23:35:40.394Z,45.97
2024-01-18T23:38:07.827Z,41.53
2024-01-18T23:40:35.607Z,39.47
2024-01-18T23:43:03.592Z,52.08
2024-01-18T23:45:31.199Z,36.92
2024-01-18T23:47:58.806Z,36.40
2024-01-18T23:53:12.206Z,38.85
2024-01-18T23:55:42.704Z,37.38
2024-01-18T23:58:10.433Z,38.50
